Time;durP1;ratioP1;P1;durP2;ratioP2;P2;SDS_P1;SDS_P2;PMS_P1;PMS_P2;Temp;Humidity;BMP_temperature;BMP_pressure;BME280_temperature;BME280_humidity;BME280_pressure;Samples;Min_cycle;Max_cycle;Signal;HPM_P1;HPM_P2
2022/05/15 00:00:37;;;;;;;15.60;4.50;;;;;;;14.40;57.32;101948.19;5062459;28;20124;-78
2022/05/15 00:03:03;;;;;;;16.52;4.00;;;;;;;14.37;56.28;101938.63;5063158;28;20021;-78
2022/05/15 00:05:28;;;;;;;10.68;4.20;;;;;;;14.35;56.85;101940.44;5062384;28;20024;-78
2022/05/15 00:07:56;;;;;;;17.67;4.60;;;;;;;14.32;57.92;101944.88;5062928;28;20043;-78
2022/05/15 00:10:22;;;;;;;12.77;4.28;;;;;;;14.30;57.79;101941.44;5063930;28;20037;-78
2022/05/15 00:12:47;;;;;;;13.90;4.38;;;;;;;14.26;58.58;101936.28;5063269;28;20078;-78
2022/05/15 00:15:13;;;;;;;13.75;4.03;;;;;;;14.25;57.53;101945.06;5065247;28;20030;-78
2022/05/15 00:17:38;;;;;;;12.77;4.15;;;;;;;14.22;57.46;101939.88;5064126;28;20040;-78
2022/05/15 00:20:04;;;;;;;13.45;4.32;;;;;;;14.18;57.59;101938.22;5062888;28;20044;-78
2022/05/15 00:22:34;;;;;;;15.88;3.90;;;;;;;14.15;57.53;101945.31;5059259;28;20025;-78
2022/05/15 00:25:02;;;;;;;13.48;3.80;;;;;;;14.13;57.94;101939.25;5066800;28;20040;-78
2022/05/15 00:27:27;;;;;;;13.30;3.85;;;;;;;14.06;58.17;101936.75;5065386;28;20020;-78
2022/05/15 00:29:52;;;;;;;12.75;4.65;;;;;;;14.04;58.18;101932.47;5066845;28;20019;-78
2022/05/15 00:32:18;;;;;;;14.60;4.00;;;;;;;14.02;58.66;101929.00;5065160;28;20039;-78
2022/05/15 00:34:43;;;;;;;11.63;4.10;;;;;;;14.00;58.58;101936.91;5060927;28;20427;-78
2022/05/15 00:37:08;;;;;;;16.42;4.10;;;;;;;14.01;58.02;101933.38;5064464;28;20565;-78
2022/05/15 00:39:33;;;;;;;12.18;3.88;;;;;;;14.01;56.87;101924.66;5062946;28;20017;-78
2022/05/15 00:41:59;;;;;;;15.07;3.75;;;;;;;13.99;57.02;101922.09;5063413;28;20029;-78
2022/05/15 00:44:24;;;;;;;12.75;3.67;;;;;;;13.98;57.20;101919.50;5063716;28;20423;-78
2022/05/15 00:46:49;;;;;;;13.48;4.00;;;;;;;13.96;57.68;101930.03;5062555;28;20029;-78
2022/05/15 00:49:15;;;;;;;17.73;4.07;;;;;;;13.95;57.24;101929.13;5066631;28;20103;-78
2022/05/15 00:51:49;;;;;;;16.92;3.92;;;;;;;13.96;56.90;101927.41;5060165;28;20028;-78
2022/05/15 00:54:26;;;;;;;20.27;4.70;;;;;;;13.95;57.18;101920.44;5062274;28;20028;-78
2022/05/15 00:57:15;;;;;;;12.90;3.83;;;;;;;13.93;56.06;101915.22;5065172;28;20020;-78
2022/05/15 00:59:49;;;;;;;15.27;4.00;;;;;;;13.90;57.16;101914.44;5063523;28;20107;-77
2022/05/15 01:02:15;;;;;;;14.40;3.92;;;;;;;13.85;57.94;101913.69;5064021;28;20024;-78
2022/05/15 01:04:41;;;;;;;18.45;4.45;;;;;;;13.84;57.59;101917.19;5064060;28;20028;-78
2022/05/15 01:07:06;;;;;;;15.30;4.35;;;;;;;13.83;58.10;101918.97;5071499;28;20024;-78
2022/05/15 01:09:32;;;;;;;16.27;3.95;;;;;;;13.83;57.44;101915.50;5069524;28;20020;-78
2022/05/15 01:12:00;;;;;;;13.80;3.83;;;;;;;13.82;57.51;101914.63;5062040;28;20052;-78
2022/05/15 01:14:25;;;;;;;15.77;4.03;;;;;;;13.81;57.59;101916.38;5065746;28;20499;-78
2022/05/15 01:16:50;;;;;;;12.00;3.78;;;;;;;13.80;57.74;101921.63;5061095;28;20037;-78
2022/05/15 01:19:28;;;;;;;16.40;4.15;;;;;;;13.79;57.15;101917.28;5062616;28;20101;-78
2022/05/15 01:21:57;;;;;;;15.80;4.05;;;;;;;13.76;57.79;101913.00;5060506;28;20060;-78
2022/05/15 01:24:23;;;;;;;15.27;3.95;;;;;;;13.74;57.75;101917.41;5058395;28;20028;-78
2022/05/15 01:26:49;;;;;;;17.00;3.90;;;;;;;13.73;57.95;101920.91;5067427;28;20040;-78
2022/05/15 01:29:14;;;;;;;14.65;3.90;;;;;;;13.73;57.78;101926.16;5063542;28;20020;-78
2022/05/15 01:31:41;;;;;;;18.02;4.43;;;;;;;13.72;57.96;101921.81;5064211;28;20030;-78
2022/05/15 01:34:08;;;;;;;12.05;4.10;;;;;;;13.70;57.79;101931.44;5062552;28;20109;-78
2022/05/15 01:36:34;;;;;;;17.63;3.80;;;;;;;13.68;58.04;101922.75;5064632;28;20029;-78
2022/05/15 01:38:59;;;;;;;17.38;4.68;;;;;;;13.65;58.16;101920.22;5079657;28;20186;-78
2022/05/15 01:41:26;;;;;;;12.18;3.45;;;;;;;13.62;58.82;101928.97;5060869;28;20032;-78
2022/05/15 01:43:52;;;;;;;12.30;3.83;;;;;;;13.55;58.70;101922.19;5061345;28;20024;-78
2022/05/15 01:46:23;;;;;;;15.50;3.55;;;;;;;13.55;58.62;101921.31;5064528;28;20039;-78
2022/05/15 01:48:49;;;;;;;16.95;4.10;;;;;;;13.50;58.62;101919.63;5063723;28;20028;-78
2022/05/15 01:51:15;;;;;;;13.50;4.50;;;;;;;13.47;58.76;101914.50;5061730;28;20043;-77
2022/05/15 01:53:41;;;;;;;13.77;3.70;;;;;;;13.45;58.95;101915.41;5061251;28;20021;-78
2022/05/15 01:56:06;;;;;;;18.45;4.18;;;;;;;13.42;58.64;101913.72;5065427;28;20048;-78
2022/05/15 01:58:32;;;;;;;15.38;4.53;;;;;;;13.42;58.86;101910.22;5064594;28;20106;-78
2022/05/15 02:00:58;;;;;;;15.90;4.10;;;;;;;13.41;58.64;101913.75;5061736;28;20024;-78
2022/05/15 02:03:23;;;;;;;16.75;4.00;;;;;;;13.40;58.97;101915.50;5063435;28;20024;-78
2022/05/15 02:05:48;;;;;;;16.20;3.65;;;;;;;13.39;58.80;101916.34;5064483;28;20125;-78
2022/05/15 02:08:14;;;;;;;15.70;4.10;;;;;;;13.37;59.14;101912.91;5062838;28;20028;-78
2022/05/15 02:10:39;;;;;;;15.13;3.85;;;;;;;13.35;59.11;101909.47;5062807;28;20489;-78
2022/05/15 02:13:04;;;;;;;12.70;3.70;;;;;;;13.32;58.87;101915.63;5060596;28;20036;-78
2022/05/15 02:15:29;;;;;;;15.07;3.90;;;;;;;13.30;59.03;101906.09;5062249;28;20540;-78
2022/05/15 02:17:56;;;;;;;16.52;4.30;;;;;;;13.28;59.09;101903.50;5059947;28;20024;-78
2022/05/15 02:20:21;;;;;;;12.40;4.10;;;;;;;13.27;59.24;101907.00;5063461;28;20046;-78
2022/05/15 02:22:47;;;;;;;15.30;4.05;;;;;;;13.25;59.38;101908.78;5061156;28;20476;-77
2022/05/15 02:25:13;;;;;;;14.07;3.88;;;;;;;13.21;59.27;101894.94;5062515;28;20035;-77
2022/05/15 02:27:39;;;;;;;17.75;4.30;;;;;;;13.17;59.43;101895.88;5061638;28;20040;-78
2022/05/15 02:30:06;;;;;;;16.63;3.95;;;;;;;13.15;59.64;101897.66;5061057;28;20436;-78
2022/05/15 02:32:32;;;;;;;14.90;3.92;;;;;;;13.14;59.74;101906.41;5062909;28;20098;-78
2022/05/15 02:34:57;;;;;;;13.52;3.85;;;;;;;13.12;59.76;101917.75;5061189;28;20036;-78
2022/05/15 02:37:23;;;;;;;19.33;3.78;;;;;;;13.09;60.09;101913.47;5059063;28;20029;-78
2022/05/15 02:39:48;;;;;;;14.98;4.25;;;;;;;13.09;60.05;101912.59;5059028;28;20100;-77
2022/05/15 02:42:13;;;;;;;14.52;4.40;;;;;;;13.04;59.91;101910.06;5063282;28;20059;-78
2022/05/15 02:44:39;;;;;;;24.23;4.68;;;;;;;13.03;60.00;101914.44;5057567;28;20044;-78
2022/05/15 02:47:04;;;;;;;16.67;4.15;;;;;;;13.00;60.32;101913.63;5063243;28;20032;-78
2022/05/15 02:52:14;;;;;;;17.27;3.95;;;;;;;12.95;60.53;101912.88;5064896;28;20035;-77
2022/05/15 02:54:39;;;;;;;13.88;4.30;;;;;;;12.90;60.56;101903.34;5060949;28;20032;-78
2022/05/15 02:57:07;;;;;;;17.02;4.30;;;;;;;12.88;60.69;101907.75;5066298;28;20086;-78
2022/05/15 02:59:32;;;;;;;16.42;4.28;;;;;;;12.86;60.76;101900.84;5064048;28;20025;-78
2022/05/15 03:01:58;;;;;;;14.73;4.22;;;;;;;12.83;60.73;101893.91;5065465;28;20025;-78
2022/05/15 03:04:23;;;;;;;13.43;4.25;;;;;;;12.82;60.65;101894.78;5062355;28;20017;-78
2022/05/15 03:06:48;;;;;;;16.33;3.90;;;;;;;12.78;60.74;101898.38;5066153;28;20032;-78
2022/05/15 03:09:13;;;;;;;15.50;4.43;;;;;;;12.77;60.88;101896.63;5064328;28;20125;-77
2022/05/15 03:11:38;;;;;;;14.98;4.15;;;;;;;12.73;60.90;101894.97;5064700;28;20055;-78
2022/05/15 03:14:04;;;;;;;14.73;3.85;;;;;;;12.70;61.02;101890.69;5064856;28;20019;-78
2022/05/15 03:16:31;;;;;;;18.50;4.57;;;;;;;12.69;61.15;101888.06;5064100;28;20029;-78
2022/05/15 03:18:56;;;;;;;19.60;4.60;;;;;;;12.63;61.20;101889.03;5070824;28;20021;-78
2022/05/15 03:21:30;;;;;;;16.67;3.92;;;;;;;12.60;61.51;101884.75;5069594;28;20110;-78
2022/05/15 03:23:56;;;;;;;15.70;3.95;;;;;;;12.57;61.69;101884.78;5065382;28;20024;-78
2022/05/15 03:26:22;;;;;;;14.52;4.28;;;;;;;12.54;61.58;101884.84;5067271;28;20028;-77
2022/05/15 03:28:47;;;;;;;15.63;4.03;;;;;;;12.53;61.48;101888.34;5062533;28;20025;-78
2022/05/15 03:31:13;;;;;;;13.48;4.03;;;;;;;12.52;61.82;101891.00;5060275;28;20017;-78
2022/05/15 03:33:39;;;;;;;18.83;4.13;;;;;;;12.49;62.01;101881.44;5062160;28;20020;-78
2022/05/15 03:36:10;;;;;;;15.10;4.00;;;;;;;12.47;62.10;101883.22;5067089;28;20029;-78
2022/05/15 03:38:36;;;;;;;14.10;4.28;;;;;;;12.47;61.71;101874.53;5060533;28;20056;-78
2022/05/15 03:41:01;;;;;;;13.73;3.95;;;;;;;12.45;62.14;101879.78;5067929;28;20064;-78
2022/05/15 03:43:26;;;;;;;17.70;4.45;;;;;;;12.43;61.69;101881.56;5063404;28;20032;-78
2022/05/15 03:45:51;;;;;;;12.52;4.30;;;;;;;12.42;62.48;101874.63;5065717;28;20052;-78
2022/05/15 03:48:17;;;;;;;13.35;4.30;;;;;;;12.41;62.12;101878.13;5065184;28;20120;-78
2022/05/15 03:50:42;;;;;;;16.30;4.30;;;;;;;12.39;62.23;101872.06;5063199;28;20031;-78
2022/05/15 03:53:08;;;;;;;13.13;4.10;;;;;;;12.39;62.25;101879.88;5065949;28;20471;-78
2022/05/15 03:55:33;;;;;;;16.23;3.80;;;;;;;12.37;62.31;101879.03;5061285;28;20056;-78
2022/05/15 03:57:59;;;;;;;17.98;4.20;;;;;;;12.34;62.29;101877.38;5063946;28;20051;-78
2022/05/15 04:00:24;;;;;;;16.15;4.10;;;;;;;12.32;62.43;101880.88;5060996;28;20029;-78
2022/05/15 04:02:49;;;;;;;11.50;4.20;;;;;;;12.30;62.50;101876.53;5063374;28;20028;-78
2022/05/15 04:05:15;;;;;;;16.15;4.25;;;;;;;12.30;62.56;101880.91;5063490;28;20032;-78
2022/05/15 04:07:47;;;;;;;15.05;3.97;;;;;;;12.28;62.34;101878.31;5062489;28;20036;-77
2022/05/15 04:10:15;;;;;;;14.52;3.70;;;;;;;12.28;62.32;101878.31;5060319;28;20053;-78
2022/05/15 04:12:41;;;;;;;15.80;4.25;;;;;;;12.26;62.60;101887.94;5065804;28;20036;-78
2022/05/15 04:15:06;;;;;;;16.05;4.03;;;;;;;12.26;62.87;101879.22;5062555;28;20059;-78
2022/05/15 04:17:32;;;;;;;16.00;4.25;;;;;;;12.23;62.71;101879.25;5064205;28;20388;-77
2022/05/15 04:20:01;;;;;;;17.02;4.30;;;;;;;12.24;62.94;101875.78;5059645;28;20526;-78
2022/05/15 04:22:26;;;;;;;16.20;4.10;;;;;;;12.24;62.85;101881.00;5065171;28;20039;-78
2022/05/15 04:24:51;;;;;;;12.52;4.25;;;;;;;12.25;62.95;101880.09;5066659;28;20029;-78
2022/05/15 04:27:17;;;;;;;12.40;4.35;;;;;;;12.26;63.20;101885.31;5062121;28;20039;-78
2022/05/15 04:29:42;;;;;;;13.85;3.72;;;;;;;12.26;63.16;101885.31;5061261;28;20058;-78
2022/05/15 04:32:07;;;;;;;15.73;4.28;;;;;;;12.28;63.38;101893.97;5061152;28;20024;-78
2022/05/15 04:34:32;;;;;;;14.77;4.30;;;;;;;12.28;63.36;101898.31;5065956;28;20024;-78
2022/05/15 04:36:58;;;;;;;11.70;4.53;;;;;;;12.32;63.10;101893.91;5061180;28;20039;-78
2022/05/15 04:39:23;;;;;;;13.88;4.22;;;;;;;12.35;63.30;101899.09;5063874;28;20560;-78
2022/05/15 04:41:49;;;;;;;17.98;4.50;;;;;;;12.37;63.41;101897.31;5065189;28;20129;-78
2022/05/15 04:44:15;;;;;;;15.10;4.13;;;;;;;12.38;63.40;101894.66;5059795;28;20047;-77
2022/05/15 04:46:40;;;;;;;17.02;3.85;;;;;;;12.42;63.27;101895.50;5062204;28;20103;-78
2022/05/15 04:49:06;;;;;;;17.08;4.38;;;;;;;12.42;63.33;101891.13;5063972;28;20020;-78
2022/05/15 04:51:31;;;;;;;20.98;4.72;;;;;;;12.42;63.09;101885.06;5064881;28;20376;-78
2022/05/15 04:53:57;;;;;;;18.27;4.93;;;;;;;12.44;63.41;101884.13;5062788;28;20028;-78
2022/05/15 04:56:22;;;;;;;15.90;4.60;;;;;;;12.45;63.22;101896.31;5064871;28;20411;-78
2022/05/15 04:58:49;;;;;;;15.27;4.35;;;;;;;12.48;63.55;101891.91;5061159;28;20089;-78
2022/05/15 05:01:14;;;;;;;13.82;4.18;;;;;;;12.50;63.61;101891.00;5064742;28;20036;-78
2022/05/15 05:03:40;;;;;;;13.48;4.25;;;;;;;12.54;63.50;101887.44;5061596;28;20107;-78
2022/05/15 05:06:06;;;;;;;15.43;4.30;;;;;;;12.56;63.95;101885.69;5061340;28;20047;-77
2022/05/15 05:08:31;;;;;;;16.38;5.35;;;;;;;12.59;63.82;101889.97;5059264;28;20040;-78
2022/05/15 05:10:56;;;;;;;18.52;5.07;;;;;;;12.62;63.87;101889.09;5064716;28;20135;-78
2022/05/15 05:13:22;;;;;;;17.02;4.63;;;;;;;12.64;64.03;101889.94;5061043;28;20028;-78
2022/05/15 05:15:47;;;;;;;14.98;4.82;;;;;;;12.67;64.30;101897.69;5063659;28;20083;-78
2022/05/15 05:18:14;;;;;;;16.58;4.93;;;;;;;12.72;64.17;101898.47;5062512;28;20082;-78
2022/05/15 05:20:40;;;;;;;18.92;5.00;;;;;;;12.78;64.46;101890.53;5063346;28;20048;-78
2022/05/15 05:23:05;;;;;;;14.73;5.00;;;;;;;12.84;64.21;101900.00;5059484;28;20052;-76
2022/05/15 05:25:30;;;;;;;20.38;5.07;;;;;;;12.92;64.35;101898.09;5064669;28;20024;-78
2022/05/15 05:27:56;;;;;;;15.27;5.13;;;;;;;12.99;63.84;101898.84;5063923;28;20058;-78
2022/05/15 05:30:23;;;;;;;15.25;5.20;;;;;;;13.06;64.08;101897.84;5061209;28;20032;-78
2022/05/15 05:32:49;;;;;;;14.10;5.20;;;;;;;13.12;63.80;101909.91;5062474;28;20482;-77
2022/05/15 05:35:16;;;;;;;16.42;5.90;;;;;;;13.17;63.74;101903.72;5058915;28;20368;-77
2022/05/15 05:37:41;;;;;;;17.77;5.93;;;;;;;13.25;63.74;101906.16;5059291;28;20028;-78
2022/05/15 05:40:08;;;;;;;16.65;5.47;;;;;;;13.31;63.65;101902.59;5062480;28;20045;-77
2022/05/15 05:42:33;;;;;;;16.02;5.57;;;;;;;13.37;63.86;101905.06;5059073;28;20031;-77
2022/05/15 05:45:00;;;;;;;15.60;5.45;;;;;;;13.43;64.58;101897.16;5061085;28;20036;-78
2022/05/15 05:47:27;;;;;;;13.05;5.47;;;;;;;13.49;64.27;101899.63;5058972;28;20493;-78
2022/05/15 05:49:52;;;;;;;20.63;5.82;;;;;;;13.57;63.43;101898.59;5059696;28;20143;-78
2022/05/15 05:52:18;;;;;;;15.82;5.63;;;;;;;13.63;63.72;101896.72;5062191;28;20112;-78
2022/05/15 05:54:44;;;;;;;18.25;6.18;;;;;;;13.71;63.34;101891.31;5060846;28;20140;-77
2022/05/15 05:57:09;;;;;;;14.20;5.25;;;;;;;13.76;63.81;101892.09;5059520;28;20052;-78
2022/05/15 05:59:35;;;;;;;15.27;5.90;;;;;;;13.84;63.59;101898.88;5059960;28;20033;-78
2022/05/15 06:02:00;;;;;;;18.33;5.97;;;;;;;13.90;63.65;101891.78;5063636;28;21453;-77
2022/05/15 06:04:41;;;;;;;15.98;5.85;;;;;;;13.98;62.69;101894.22;5059873;28;20042;-78
2022/05/15 06:07:15;;;;;;;19.40;6.65;;;;;;;14.07;62.22;101893.16;5059538;28;20064;-78
2022/05/15 06:09:43;;;;;;;17.48;6.55;;;;;;;14.15;62.14;101896.41;5061284;28;20028;-78
2022/05/15 06:12:10;;;;;;;19.75;7.07;;;;;;;14.21;62.17;101896.28;5063715;28;20049;-78
2022/05/15 06:14:36;;;;;;;17.27;6.28;;;;;;;14.30;63.05;101887.34;5063017;28;20059;-78
2022/05/15 06:17:01;;;;;;;20.25;6.43;;;;;;;14.35;63.40;101893.31;5064879;28;20427;-78
2022/05/15 06:19:27;;;;;;;14.43;6.32;;;;;;;14.44;63.13;101889.59;5063774;28;20115;-78
2022/05/15 06:21:53;;;;;;;14.15;5.95;;;;;;;14.53;63.08;101885.91;5062551;28;20033;-78
2022/05/15 06:24:18;;;;;;;20.45;6.05;;;;;;;14.62;62.50;101885.69;5062145;28;20027;-78
2022/05/15 06:26:44;;;;;;;17.23;5.75;;;;;;;14.72;63.70;101883.72;5065987;28;20028;-78
2022/05/15 06:29:09;;;;;;;16.95;6.30;;;;;;;14.82;60.97;101892.19;5063321;28;20524;-78
2022/05/15 06:31:34;;;;;;;13.20;5.72;;;;;;;14.92;61.19;101888.41;5064493;28;20495;-78
2022/05/15 06:34:00;;;;;;;16.33;6.80;;;;;;;15.01;60.75;101888.16;5066963;28;20024;-78
2022/05/15 06:36:25;;;;;;;15.85;6.40;;;;;;;15.10;60.37;101881.81;5064383;28;20374;-78
2022/05/15 06:38:50;;;;;;;14.82;6.50;;;;;;;15.20;61.81;101895.50;5062279;28;20112;-78
2022/05/15 06:41:15;;;;;;;16.98;6.35;;;;;;;15.28;61.16;101885.66;5070810;28;20017;-78
2022/05/15 06:43:41;;;;;;;13.60;6.10;;;;;;;15.38;62.54;101888.88;5068644;28;20039;-78
2022/05/15 06:46:06;;;;;;;13.00;6.28;;;;;;;15.46;61.02;101886.03;5067123;28;20025;-78
2022/05/15 06:48:33;;;;;;;14.65;6.80;;;;;;;15.55;60.55;101880.50;5072250;28;20016;-77
2022/05/15 06:50:59;;;;;;;15.18;6.68;;;;;;;15.65;61.23;101885.47;5067061;28;20029;-78
2022/05/15 06:53:25;;;;;;;18.52;7.30;;;;;;;15.74;60.52;101885.19;5079533;28;20468;-78
2022/05/15 06:58:34;;;;;;;12.15;6.32;;;;;;;15.92;60.74;101892.50;5068776;28;20032;-78
2022/05/15 07:00:59;;;;;;;17.02;6.95;;;;;;;16.03;58.69;101891.34;5071359;28;20028;-78
2022/05/15 07:03:25;;;;;;;18.23;6.80;;;;;;;16.11;58.28;101885.84;5068042;28;20036;-78
2022/05/15 07:05:50;;;;;;;13.60;6.65;;;;;;;16.17;59.23;101886.50;5072077;28;20029;-78
2022/05/15 07:08:16;;;;;;;12.60;6.85;;;;;;;16.23;58.13;101881.03;5069050;28;20028;-78
2022/05/15 07:10:42;;;;;;;15.95;7.78;;;;;;;16.31;58.65;101891.28;5070591;28;20112;-78
2022/05/15 07:13:08;;;;;;;14.85;6.70;;;;;;;16.37;58.33;101877.94;5073051;28;20024;-78
2022/05/15 07:15:33;;;;;;;14.73;7.05;;;;;;;16.44;57.93;101881.22;5072003;28;20532;-78
2022/05/15 07:17:59;;;;;;;18.52;7.57;;;;;;;16.50;57.72;101885.41;5069636;28;20108;-78
2022/05/15 07:20:24;;;;;;;15.52;6.63;;;;;;;16.57;58.57;101884.28;5069331;28;20024;-78
2022/05/15 07:22:49;;;;;;;16.63;6.93;;;;;;;16.62;57.63;101887.63;5071114;28;20028;-78
2022/05/15 07:25:15;;;;;;;15.85;6.85;;;;;;;16.69;57.19;101890.91;5070129;28;20032;-77
2022/05/15 07:27:40;;;;;;;18.77;7.03;;;;;;;16.76;57.22;101887.13;5067583;28;20039;-77
2022/05/15 07:30:07;;;;;;;13.25;6.85;;;;;;;16.83;57.02;101891.28;5072528;28;20024;-77
2022/05/15 07:32:33;;;;;;;11.80;6.68;;;;;;;16.93;56.74;101896.19;5073381;28;20027;-78
2022/05/15 07:34:58;;;;;;;13.55;6.32;;;;;;;16.99;55.62;101888.97;5073176;28;20028;-78
2022/05/15 07:37:24;;;;;;;11.30;5.90;;;;;;;17.07;55.59;101893.09;5063970;28;20038;-78
2022/05/15 07:39:49;;;;;;;14.50;5.97;;;;;;;17.13;56.33;101888.47;5071175;28;20035;-77
2022/05/15 07:42:14;;;;;;;13.65;6.45;;;;;;;17.21;54.63;101890.81;5070265;28;20048;-78
2022/05/15 07:44:40;;;;;;;16.38;6.53;;;;;;;17.29;55.06;101894.03;5064186;28;20391;-78
2022/05/15 07:47:06;;;;;;;12.45;6.35;;;;;;;17.37;54.17;101890.25;5065490;28;20047;-78
2022/05/15 07:49:31;;;;;;;15.45;6.90;;;;;;;17.42;55.17;101894.41;5065833;28;20387;-78
2022/05/15 07:51:57;;;;;;;16.30;6.95;;;;;;;17.52;54.43;101896.72;5071835;28;20060;-78
2022/05/15 07:54:23;;;;;;;12.52;6.20;;;;;;;17.60;55.14;101886.72;5074417;28;20051;-78
2022/05/15 07:56:48;;;;;;;11.88;6.22;;;;;;;17.69;53.66;101889.03;5069765;28;20551;-78
2022/05/15 07:59:13;;;;;;;13.60;5.85;;;;;;;17.77;53.87;101877.31;5066494;28;20069;-78
2022/05/15 08:01:40;;;;;;;14.85;5.80;;;;;;;17.84;53.02;101884.94;5069107;28;20020;-78
2022/05/15 08:04:06;;;;;;;10.88;5.93;;;;;;;17.90;52.89;101879.41;5065662;28;20051;-78
2022/05/15 08:09:15;;;;;;;12.40;5.85;;;;;;;18.01;52.40;101881.66;5069909;28;20043;-78
2022/05/15 08:11:41;;;;;;;13.75;5.93;;;;;;;18.10;52.63;101887.47;5074939;28;20045;-78
2022/05/15 08:14:08;;;;;;;10.75;5.55;;;;;;;18.18;52.41;101885.38;5069183;28;20063;-78
2022/05/15 08:16:35;;;;;;;12.13;5.28;;;;;;;18.26;51.37;101874.50;5066965;28;20024;-78
2022/05/15 08:24:29;;;;;;;11.23;5.65;;;;;;;18.54;51.50;101868.94;5062851;28;20506;-78
2022/05/15 08:26:56;;;;;;;9.68;5.07;;;;;;;18.63;49.87;101863.25;5066775;28;20028;-78
2022/05/15 08:29:21;;;;;;;9.43;5.20;;;;;;;18.70;49.56;101858.59;5081514;28;20024;-78
2022/05/15 08:31:46;;;;;;;11.40;5.40;;;;;;;18.78;50.25;101855.63;5075876;28;20038;-76
2022/05/15 08:34:12;;;;;;;11.13;5.18;;;;;;;18.83;48.61;101843.06;5075682;28;20020;-77
2022/05/15 08:36:41;;;;;;;10.05;5.65;;;;;;;18.92;49.16;101847.94;5073437;28;20499;-77
2022/05/15 08:39:08;;;;;;;11.38;5.43;;;;;;;19.02;47.54;101847.56;5072683;28;20023;-78
2022/05/15 08:41:48;;;;;;;7.72;4.57;;;;;;;19.08;49.08;101850.75;5070616;28;20468;-77
2022/05/15 08:44:18;;;;;;;12.68;5.43;;;;;;;19.13;48.64;101845.28;5064070;28;20041;-78
2022/05/15 08:46:49;;;;;;;7.47;4.68;;;;;;;19.15;47.16;101837.31;5064557;28;20035;-78
2022/05/15 08:49:32;;;;;;;15.00;5.63;;;;;;;19.20;48.30;101836.16;5064430;28;20039;-78
2022/05/15 08:52:00;;;;;;;10.30;5.28;;;;;;;19.25;46.96;101834.16;5064862;28;20102;-78
2022/05/15 08:54:26;;;;;;;11.90;4.88;;;;;;;19.34;46.11;101832.00;5066456;28;21658;-78
2022/05/15 08:56:52;;;;;;;10.68;5.38;;;;;;;19.41;45.17;101825.53;5063832;28;20081;-78
2022/05/15 08:59:38;;;;;;;10.95;4.30;;;;;;;19.47;46.25;101827.84;5065689;28;20020;-78
2022/05/15 09:02:05;;;;;;;10.55;4.20;;;;;;;19.54;42.88;101823.16;5065100;28;20383;-78
2022/05/15 09:04:31;;;;;;;9.48;3.72;;;;;;;19.60;43.29;101827.28;5061473;28;20039;-78
2022/05/15 09:07:11;;;;;;;11.30;4.70;;;;;;;19.64;42.67;101823.59;5060880;28;20059;-78
2022/05/15 09:09:57;;;;;;;8.30;3.92;;;;;;;19.67;43.64;101818.13;5062822;28;20025;-78
2022/05/15 09:12:24;;;;;;;10.63;4.45;;;;;;;19.70;42.99;101818.84;5062749;28;20339;-78
2022/05/15 09:15:00;;;;;;;9.52;4.50;;;;;;;19.75;42.95;101816.00;5062595;28;20024;-78
2022/05/15 09:17:46;;;;;;;7.50;3.97;;;;;;;19.82;44.31;101827.09;5059489;28;20079;-78
2022/05/15 09:20:34;;;;;;;11.07;4.50;;;;;;;19.86;42.87;101826.88;5064786;28;20024;-78
2022/05/15 09:23:05;;;;;;;11.85;4.15;;;;;;;19.94;42.88;101826.50;5064298;28;20063;-77
2022/05/15 09:25:36;;;;;;;9.10;4.47;;;;;;;19.98;40.88;101830.72;5062393;28;20646;-79
2022/05/15 09:28:12;;;;;;;11.13;4.60;;;;;;;20.04;42.67;101824.28;5065184;28;20032;-78
2022/05/15 09:30:41;;;;;;;10.70;4.55;;;;;;;20.08;40.35;101823.19;5064037;28;20031;-79
2022/05/15 09:33:06;;;;;;;9.38;4.05;;;;;;;20.11;40.18;101825.69;5062179;28;20033;-78
2022/05/15 09:35:40;;;;;;;10.38;3.80;;;;;;;20.17;41.23;101833.28;5065289;28;20032;-78
2022/05/15 09:43:52;;;;;;;12.93;4.72;;;;;;;20.29;40.67;101815.13;5063185;28;20043;-78
2022/05/15 09:46:20;;;;;;;8.20;3.50;;;;;;;20.33;40.38;101816.63;5065933;28;20029;-79
2022/05/15 09:49:03;;;;;;;9.07;4.10;;;;;;;20.34;40.51;101807.78;5064743;28;20036;-79
2022/05/15 09:51:48;;;;;;;10.38;3.75;;;;;;;20.37;41.57;101810.28;5060372;28;20025;-78
2022/05/15 09:54:37;;;;;;;7.30;3.22;;;;;;;20.41;42.05;101803.91;5064346;28;20126;-78
2022/05/15 09:57:12;;;;;;;7.45;3.50;;;;;;;20.49;41.99;101803.50;5062108;28;20048;-78
2022/05/15 09:59:37;;;;;;;11.60;3.63;;;;;;;20.57;39.14;101795.16;5064249;28;20037;-79
2022/05/15 10:02:03;;;;;;;10.40;3.90;;;;;;;20.59;39.45;101799.41;5066547;28;20085;-79
2022/05/15 10:04:38;;;;;;;9.52;3.47;;;;;;;20.62;40.86;101795.78;5068984;28;20036;-79
2022/05/15 10:07:09;;;;;;;9.15;3.70;;;;;;;20.66;39.16;101801.75;5067328;28;20028;-79
2022/05/15 10:09:40;;;;;;;10.65;4.00;;;;;;;20.67;39.65;101799.00;5068132;28;20486;-79
2022/05/15 10:12:24;;;;;;;9.75;3.10;;;;;;;20.69;39.50;101791.84;5069026;28;20403;-78
2022/05/15 10:14:54;;;;;;;9.57;3.22;;;;;;;20.70;37.79;101785.63;5065885;28;20035;-78
2022/05/15 10:17:23;;;;;;;6.28;3.20;;;;;;;20.73;37.21;101788.13;5063631;28;20028;-79
2022/05/15 10:19:55;;;;;;;8.45;2.63;;;;;;;20.79;38.27;101796.69;5066409;28;20036;-79
2022/05/15 10:22:43;;;;;;;6.07;2.50;;;;;;;20.81;37.89;101794.84;5063941;28;20514;-79
2022/05/15 10:25:38;;;;;;;6.28;2.60;;;;;;;20.86;37.39;101787.47;5068329;28;20468;-79
2022/05/15 10:28:24;;;;;;;6.78;2.65;;;;;;;20.89;36.83;101796.13;5065658;28;20028;-79
2022/05/15 10:31:16;;;;;;;5.75;2.15;;;;;;;20.92;37.17;101787.16;5065841;28;20059;-79
2022/05/15 10:33:46;;;;;;;10.38;2.33;;;;;;;20.93;36.54;101787.06;5066790;28;20039;-79
2022/05/15 10:36:24;;;;;;;4.88;2.15;;;;;;;20.94;36.66;101790.56;5066606;28;20479;-81
2022/05/15 10:39:09;;;;;;;7.50;2.55;;;;;;;20.93;35.55;101781.78;5065411;28;20028;-77
2022/05/15 10:41:54;;;;;;;8.65;2.42;;;;;;;20.96;36.90;101783.41;5068320;28;20017;-79
2022/05/15 10:44:35;;;;;;;7.15;2.65;;;;;;;21.01;37.34;101776.06;5066620;28;20119;-78
2022/05/15 10:47:07;;;;;;;9.65;2.90;;;;;;;21.06;36.84;101774.00;5065658;28;20033;-77
2022/05/15 10:49:47;;;;;;;6.65;2.67;;;;;;;21.06;34.89;101771.38;5065997;28;20017;-77
2022/05/15 10:52:36;;;;;;;9.90;2.92;;;;;;;21.05;36.87;101772.31;5066175;28;20398;-77
2022/05/15 10:58:26;;;;;;;6.18;2.60;;;;;;;21.17;36.84;101759.34;5067360;28;20143;-77
2022/05/15 11:01:07;;;;;;;7.57;2.90;;;;;;;21.22;36.91;101757.28;5068319;28;20029;-77
2022/05/15 11:04:10;;;;;;;7.50;2.92;;;;;;;21.25;37.36;101756.28;5067426;28;20431;-77
2022/05/15 11:07:00;;;;;;;8.57;2.60;;;;;;;21.26;35.42;101750.03;5067010;28;20122;-77
2022/05/15 11:09:43;;;;;;;7.10;2.50;;;;;;;21.31;36.92;101751.47;5066292;28;20083;-78
2022/05/15 11:12:24;;;;;;;8.55;2.95;;;;;;;21.30;34.68;101749.78;5065531;28;20147;-78
2022/05/15 11:15:20;;;;;;;8.40;2.60;;;;;;;21.33;36.49;101752.25;5067609;28;20090;-79
2022/05/15 11:18:03;;;;;;;8.48;3.00;;;;;;;21.34;36.64;101750.44;5065758;28;20032;-78
2022/05/15 11:20:39;;;;;;;7.82;3.03;;;;;;;21.34;35.86;101745.16;5065725;28;20032;-79
2022/05/15 11:23:25;;;;;;;10.20;3.67;;;;;;;21.36;35.63;101748.56;5067237;28;20032;-79
2022/05/15 11:25:57;;;;;;;8.88;2.90;;;;;;;21.41;36.35;101740.34;5067703;28;20031;-79
2022/05/15 11:28:38;;;;;;;8.13;3.05;;;;;;;21.44;35.89;101741.03;5067182;28;20035;-79
2022/05/15 11:31:11;;;;;;;10.65;3.13;;;;;;;21.45;34.99;101731.31;5066733;28;20202;-77
2022/05/15 11:33:58;;;;;;;10.57;3.17;;;;;;;21.49;36.28;101743.44;5064605;28;20421;-77
2022/05/15 11:36:29;;;;;;;11.45;3.53;;;;;;;21.55;36.10;101727.16;5066241;28;20187;-77
2022/05/15 11:39:03;;;;;;;9.52;3.00;;;;;;;21.61;36.63;101718.91;5067263;28;20036;-77
2022/05/15 11:41:34;;;;;;;9.95;3.60;;;;;;;21.65;35.50;101715.16;5066363;28;20464;-77
2022/05/15 11:44:06;;;;;;;10.75;3.60;;;;;;;21.67;35.59;101712.41;5065926;28;20032;-78
2022/05/15 11:46:46;;;;;;;7.50;3.03;;;;;;;21.68;36.29;101704.38;5065811;28;20032;-79
2022/05/15 11:49:14;;;;;;;11.20;3.60;;;;;;;21.67;36.32;101702.66;5065755;28;20028;-76